sensor_id;sensor_type;location;lat;lon;timestamp;P1;durP1;ratioP1;P2;durP2;ratioP2
24677;SDS011;12800;53.094;8.778;2022-11-04T00:01:16;5.70;;;2.87;;
24677;SDS011;12800;53.094;8.778;2022-11-04T00:03:42;4.73;;;2.17;;
24677;SDS011;12800;53.094;8.778;2022-11-04T00:06:07;4.37;;;2.20;;
24677;SDS011;12800;53.094;8.778;2022-11-04T00:08:34;3.60;;;2.50;;
24677;SDS011;12800;53.094;8.778;2022-11-04T00:11:00;3.77;;;2.27;;
24677;SDS011;12800;53.094;8.778;2022-11-04T00:13:44;4.13;;;2.73;;
24677;SDS011;12800;53.094;8.778;2022-11-04T00:16:10;3.47;;;2.20;;
24677;SDS011;12800;53.094;8.778;2022-11-04T00:18:54;4.30;;;2.47;;
24677;SDS011;12800;53.094;8.778;2022-11-04T00:21:20;3.83;;;2.30;;
24677;SDS011;12800;53.094;8.778;2022-11-04T00:24:05;5.27;;;2.90;;
24677;SDS011;12800;53.094;8.778;2022-11-04T00:26:50;3.03;;;2.40;;
24677;SDS011;12800;53.094;8.778;2022-11-04T00:29:34;7.53;;;2.77;;
24677;SDS011;12800;53.094;8.778;2022-11-04T00:32:00;4.73;;;2.67;;
24677;SDS011;12800;53.094;8.778;2022-11-04T00:34:44;3.70;;;2.87;;
24677;SDS011;12800;53.094;8.778;2022-11-04T00:37:10;5.43;;;3.23;;
24677;SDS011;12800;53.094;8.778;2022-11-04T00:39:35;5.23;;;3.03;;
24677;SDS011;12800;53.094;8.778;2022-11-04T00:42:01;5.97;;;3.47;;
24677;SDS011;12800;53.094;8.778;2022-11-04T00:44:26;6.60;;;3.37;;
24677;SDS011;12800;53.094;8.778;2022-11-04T00:46:52;4.93;;;2.57;;
24677;SDS011;12800;53.094;8.778;2022-11-04T00:49:18;6.50;;;3.37;;
24677;SDS011;12800;53.094;8.778;2022-11-04T00:51:43;5.27;;;2.97;;
24677;SDS011;12800;53.094;8.778;2022-11-04T00:54:09;4.10;;;2.60;;
24677;SDS011;12800;53.094;8.778;2022-11-04T00:56:38;7.23;;;3.10;;
24677;SDS011;12800;53.094;8.778;2022-11-04T00:59:04;4.90;;;2.97;;
24677;SDS011;12800;53.094;8.778;2022-11-04T01:01:30;6.93;;;3.03;;
24677;SDS011;12800;53.094;8.778;2022-11-04T01:03:55;5.00;;;2.97;;
24677;SDS011;12800;53.094;8.778;2022-11-04T01:06:22;4.20;;;2.70;;
24677;SDS011;12800;53.094;8.778;2022-11-04T01:08:53;4.10;;;2.77;;
24677;SDS011;12800;53.094;8.778;2022-11-04T01:11:20;4.50;;;2.77;;
24677;SDS011;12800;53.094;8.778;2022-11-04T01:13:45;4.90;;;3.20;;
24677;SDS011;12800;53.094;8.778;2022-11-04T01:16:14;6.37;;;3.27;;
24677;SDS011;12800;53.094;8.778;2022-11-04T01:18:40;4.57;;;2.73;;
24677;SDS011;12800;53.094;8.778;2022-11-04T01:21:06;3.73;;;3.23;;
24677;SDS011;12800;53.094;8.778;2022-11-04T01:23:34;7.23;;;3.43;;
24677;SDS011;12800;53.094;8.778;2022-11-04T01:26:00;3.60;;;3.20;;
24677;SDS011;12800;53.094;8.778;2022-11-04T01:28:28;4.13;;;2.80;;
24677;SDS011;12800;53.094;8.778;2022-11-04T01:30:54;6.80;;;3.67;;
24677;SDS011;12800;53.094;8.778;2022-11-04T01:33:19;4.67;;;3.30;;
24677;SDS011;12800;53.094;8.778;2022-11-04T01:35:45;6.60;;;3.53;;
24677;SDS011;12800;53.094;8.778;2022-11-04T01:38:10;3.43;;;2.83;;
24677;SDS011;12800;53.094;8.778;2022-11-04T01:40:36;5.13;;;3.23;;
24677;SDS011;12800;53.094;8.778;2022-11-04T01:43:04;5.00;;;3.37;;
24677;SDS011;12800;53.094;8.778;2022-11-04T01:45:36;4.87;;;3.13;;
24677;SDS011;12800;53.094;8.778;2022-11-04T01:48:03;5.37;;;3.10;;
24677;SDS011;12800;53.094;8.778;2022-11-04T01:50:36;5.67;;;3.33;;
24677;SDS011;12800;53.094;8.778;2022-11-04T01:55:33;7.87;;;3.40;;
24677;SDS011;12800;53.094;8.778;2022-11-04T01:58:05;5.70;;;3.67;;
24677;SDS011;12800;53.094;8.778;2022-11-04T02:00:34;5.27;;;3.90;;
24677;SDS011;12800;53.094;8.778;2022-11-04T02:03:25;4.47;;;4.00;;
24677;SDS011;12800;53.094;8.778;2022-11-04T02:06:15;5.50;;;3.57;;
24677;SDS011;12800;53.094;8.778;2022-11-04T02:08:43;4.83;;;3.80;;
24677;SDS011;12800;53.094;8.778;2022-11-04T02:11:09;5.73;;;3.67;;
24677;SDS011;12800;53.094;8.778;2022-11-04T02:13:36;6.20;;;3.83;;
24677;SDS011;12800;53.094;8.778;2022-11-04T02:21:16;5.13;;;3.60;;
24677;SDS011;12800;53.094;8.778;2022-11-04T02:27:08;5.03;;;4.53;;
24677;SDS011;12800;53.094;8.778;2022-11-04T02:32:47;5.23;;;4.27;;
24677;SDS011;12800;53.094;8.778;2022-11-04T02:44:09;5.30;;;3.73;;
24677;SDS011;12800;53.094;8.778;2022-11-04T02:46:50;3.57;;;2.80;;
24677;SDS011;12800;53.094;8.778;2022-11-04T02:49:39;5.40;;;3.33;;
24677;SDS011;12800;53.094;8.778;2022-11-04T02:52:10;3.33;;;3.00;;
24677;SDS011;12800;53.094;8.778;2022-11-04T02:54:41;4.00;;;2.33;;
24677;SDS011;12800;53.094;8.778;2022-11-04T02:57:12;2.53;;;2.00;;
24677;SDS011;12800;53.094;8.778;2022-11-04T02:59:46;2.23;;;1.73;;
24677;SDS011;12800;53.094;8.778;2022-11-04T03:03:00;6.70;;;1.67;;
24677;SDS011;12800;53.094;8.778;2022-11-04T03:05:09;1.57;;;1.30;;
24677;SDS011;12800;53.094;8.778;2022-11-04T03:07:39;1.77;;;1.10;;
24677;SDS011;12800;53.094;8.778;2022-11-04T03:10:20;1.17;;;1.07;;
24677;SDS011;12800;53.094;8.778;2022-11-04T03:12:57;1.67;;;1.20;;
24677;SDS011;12800;53.094;8.778;2022-11-04T03:15:30;1.60;;;0.93;;
24677;SDS011;12800;53.094;8.778;2022-11-04T03:18:09;2.83;;;0.90;;
24677;SDS011;12800;53.094;8.778;2022-11-04T03:20:56;1.80;;;0.90;;
24677;SDS011;12800;53.094;8.778;2022-11-04T03:23:26;1.60;;;1.00;;
24677;SDS011;12800;53.094;8.778;2022-11-04T03:25:52;0.90;;;0.80;;
24677;SDS011;12800;53.094;8.778;2022-11-04T03:28:49;1.10;;;1.00;;
24677;SDS011;12800;53.094;8.778;2022-11-04T03:31:36;1.60;;;1.00;;
24677;SDS011;12800;53.094;8.778;2022-11-04T03:34:10;1.83;;;0.87;;
24677;SDS011;12800;53.094;8.778;2022-11-04T03:36:35;1.40;;;1.00;;
24677;SDS011;12800;53.094;8.778;2022-11-04T03:39:01;0.90;;;0.90;;
24677;SDS011;12800;53.094;8.778;2022-11-04T03:41:37;1.77;;;1.00;;
24677;SDS011;12800;53.094;8.778;2022-11-04T03:44:10;2.70;;;1.60;;
24677;SDS011;12800;53.094;8.778;2022-11-04T03:46:36;2.33;;;1.40;;
24677;SDS011;12800;53.094;8.778;2022-11-04T03:49:02;3.13;;;1.40;;
24677;SDS011;12800;53.094;8.778;2022-11-04T03:51:30;1.17;;;1.00;;
24677;SDS011;12800;53.094;8.778;2022-11-04T03:53:55;2.37;;;1.70;;
24677;SDS011;12800;53.094;8.778;2022-11-04T04:04:28;2.80;;;1.83;;
24677;SDS011;12800;53.094;8.778;2022-11-04T04:07:01;4.30;;;2.00;;
24677;SDS011;12800;53.094;8.778;2022-11-04T04:09:39;2.17;;;1.87;;
24677;SDS011;12800;53.094;8.778;2022-11-04T04:12:14;2.40;;;1.93;;
24677;SDS011;12800;53.094;8.778;2022-11-04T04:15:04;2.40;;;1.90;;
24677;SDS011;12800;53.094;8.778;2022-11-04T04:17:35;2.27;;;1.97;;
24677;SDS011;12800;53.094;8.778;2022-11-04T04:20:05;2.97;;;2.10;;
24677;SDS011;12800;53.094;8.778;2022-11-04T04:22:47;3.23;;;2.63;;
24677;SDS011;12800;53.094;8.778;2022-11-04T04:25:27;2.77;;;2.00;;
24677;SDS011;12800;53.094;8.778;2022-11-04T04:28:15;3.23;;;2.60;;
24677;SDS011;12800;53.094;8.778;2022-11-04T04:30:43;2.17;;;1.97;;
24677;SDS011;12800;53.094;8.778;2022-11-04T04:33:10;2.30;;;2.10;;
24677;SDS011;12800;53.094;8.778;2022-11-04T04:35:43;5.33;;;2.13;;
24677;SDS011;12800;53.094;8.778;2022-11-04T04:38:16;2.30;;;2.00;;
24677;SDS011;12800;53.094;8.778;2022-11-04T04:44:12;2.40;;;2.10;;
24677;SDS011;12800;53.094;8.778;2022-11-04T04:47:03;3.57;;;2.57;;
24677;SDS011;12800;53.094;8.778;2022-11-04T04:49:30;4.07;;;2.60;;
24677;SDS011;12800;53.094;8.778;2022-11-04T04:51:58;4.27;;;2.83;;
24677;SDS011;12800;53.094;8.778;2022-11-04T04:54:26;2.70;;;2.50;;
24677;SDS011;12800;53.094;8.778;2022-11-04T04:56:52;4.13;;;2.80;;
24677;SDS011;12800;53.094;8.778;2022-11-04T04:59:18;4.10;;;2.97;;
24677;SDS011;12800;53.094;8.778;2022-11-04T05:01:43;3.90;;;3.30;;
24677;SDS011;12800;53.094;8.778;2022-11-04T05:04:09;3.40;;;2.83;;
24677;SDS011;12800;53.094;8.778;2022-11-04T05:06:35;5.37;;;3.40;;
24677;SDS011;12800;53.094;8.778;2022-11-04T05:09:03;3.73;;;3.10;;
24677;SDS011;12800;53.094;8.778;2022-11-04T05:11:29;3.03;;;2.73;;
24677;SDS011;12800;53.094;8.778;2022-11-04T05:13:54;4.07;;;3.53;;
24677;SDS011;12800;53.094;8.778;2022-11-04T05:16:20;3.43;;;3.07;;
24677;SDS011;12800;53.094;8.778;2022-11-04T05:18:46;3.73;;;3.43;;
24677;SDS011;12800;53.094;8.778;2022-11-04T05:21:12;4.30;;;3.40;;
24677;SDS011;12800;53.094;8.778;2022-11-04T05:23:39;3.13;;;2.80;;
24677;SDS011;12800;53.094;8.778;2022-11-04T05:26:05;3.47;;;3.10;;
24677;SDS011;12800;53.094;8.778;2022-11-04T05:28:30;3.43;;;3.00;;
24677;SDS011;12800;53.094;8.778;2022-11-04T05:30:56;3.37;;;3.00;;
24677;SDS011;12800;53.094;8.778;2022-11-04T05:33:26;4.47;;;3.50;;
24677;SDS011;12800;53.094;8.778;2022-11-04T05:35:51;3.20;;;2.90;;
24677;SDS011;12800;53.094;8.778;2022-11-04T05:38:17;4.73;;;3.10;;
24677;SDS011;12800;53.094;8.778;2022-11-04T05:40:42;4.50;;;3.50;;
24677;SDS011;12800;53.094;8.778;2022-11-04T05:43:08;3.83;;;3.47;;
24677;SDS011;12800;53.094;8.778;2022-11-04T05:45:33;3.57;;;3.10;;
24677;SDS011;12800;53.094;8.778;2022-11-04T05:47:59;3.67;;;3.37;;
24677;SDS011;12800;53.094;8.778;2022-11-04T05:50:26;3.30;;;3.00;;
24677;SDS011;12800;53.094;8.778;2022-11-04T05:52:55;3.40;;;3.10;;
24677;SDS011;12800;53.094;8.778;2022-11-04T05:55:22;9.17;;;7.17;;
24677;SDS011;12800;53.094;8.778;2022-11-04T05:57:47;16.13;;;11.43;;
24677;SDS011;12800;53.094;8.778;2022-11-04T06:00:13;7.87;;;6.47;;
24677;SDS011;12800;53.094;8.778;2022-11-04T06:02:39;4.40;;;4.00;;
24677;SDS011;12800;53.094;8.778;2022-11-04T06:05:04;4.93;;;3.10;;
24677;SDS011;12800;53.094;8.778;2022-11-04T06:07:31;4.40;;;3.50;;
24677;SDS011;12800;53.094;8.778;2022-11-04T06:09:56;5.87;;;3.30;;
24677;SDS011;12800;53.094;8.778;2022-11-04T06:12:22;2.90;;;2.60;;
24677;SDS011;12800;53.094;8.778;2022-11-04T06:14:47;4.33;;;3.13;;
24677;SDS011;12800;53.094;8.778;2022-11-04T06:17:13;4.03;;;3.63;;
24677;SDS011;12800;53.094;8.778;2022-11-04T06:19:41;3.93;;;3.37;;
24677;SDS011;12800;53.094;8.778;2022-11-04T06:22:07;3.80;;;3.37;;
24677;SDS011;12800;53.094;8.778;2022-11-04T06:24:37;3.90;;;3.50;;
24677;SDS011;12800;53.094;8.778;2022-11-04T06:27:03;3.63;;;3.13;;
24677;SDS011;12800;53.094;8.778;2022-11-04T06:29:28;4.23;;;3.20;;
24677;SDS011;12800;53.094;8.778;2022-11-04T06:31:54;5.03;;;3.43;;
24677;SDS011;12800;53.094;8.778;2022-11-04T06:34:20;4.30;;;3.40;;
24677;SDS011;12800;53.094;8.778;2022-11-04T06:36:47;4.53;;;3.27;;
24677;SDS011;12800;53.094;8.778;2022-11-04T06:39:13;4.37;;;3.03;;
24677;SDS011;12800;53.094;8.778;2022-11-04T06:41:38;4.13;;;2.90;;
24677;SDS011;12800;53.094;8.778;2022-11-04T06:44:04;3.43;;;3.13;;
24677;SDS011;12800;53.094;8.778;2022-11-04T06:48:58;2.53;;;2.30;;
24677;SDS011;12800;53.094;8.778;2022-11-04T06:51:24;2.60;;;2.40;;
24677;SDS011;12800;53.094;8.778;2022-11-04T06:53:49;2.50;;;2.20;;
24677;SDS011;12800;53.094;8.778;2022-11-04T06:56:15;2.97;;;2.33;;
24677;SDS011;12800;53.094;8.778;2022-11-04T06:58:41;4.07;;;2.50;;
24677;SDS011;12800;53.094;8.778;2022-11-04T07:01:07;4.70;;;2.37;;
24677;SDS011;12800;53.094;8.778;2022-11-04T07:03:32;3.03;;;2.20;;
24677;SDS011;12800;53.094;8.778;2022-11-04T07:05:58;3.40;;;2.50;;
24677;SDS011;12800;53.094;8.778;2022-11-04T07:08:29;2.60;;;2.40;;
24677;SDS011;12800;53.094;8.778;2022-11-04T07:10:54;4.30;;;2.60;;
24677;SDS011;12800;53.094;8.778;2022-11-04T07:13:20;2.50;;;2.30;;
24677;SDS011;12800;53.094;8.778;2022-11-04T07:15:45;2.47;;;2.27;;
24677;SDS011;12800;53.094;8.778;2022-11-04T07:18:11;3.40;;;2.73;;
24677;SDS011;12800;53.094;8.778;2022-11-04T07:20:37;3.13;;;2.17;;
24677;SDS011;12800;53.094;8.778;2022-11-04T07:23:02;3.47;;;2.90;;
24677;SDS011;12800;53.094;8.778;2022-11-04T07:25:28;4.90;;;2.27;;
24677;SDS011;12800;53.094;8.778;2022-11-04T07:27:54;3.13;;;2.00;;
24677;SDS011;12800;53.094;8.778;2022-11-04T07:30:19;4.70;;;2.60;;
24677;SDS011;12800;53.094;8.778;2022-11-04T07:32:45;2.60;;;2.20;;
24677;SDS011;12800;53.094;8.778;2022-11-04T07:35:11;2.50;;;2.30;;
24677;SDS011;12800;53.094;8.778;2022-11-04T07:37:37;2.63;;;2.37;;
24677;SDS011;12800;53.094;8.778;2022-11-04T07:40:06;4.77;;;2.60;;
24677;SDS011;12800;53.094;8.778;2022-11-04T07:42:32;4.10;;;2.83;;
24677;SDS011;12800;53.094;8.778;2022-11-04T07:44:58;3.50;;;3.00;;
24677;SDS011;12800;53.094;8.778;2022-11-04T07:47:23;3.83;;;2.77;;
24677;SDS011;12800;53.094;8.778;2022-11-04T07:49:49;3.70;;;2.43;;
24677;SDS011;12800;53.094;8.778;2022-11-04T07:52:15;3.37;;;2.70;;
24677;SDS011;12800;53.094;8.778;2022-11-04T07:54:40;3.03;;;2.73;;
24677;SDS011;12800;53.094;8.778;2022-11-04T07:57:06;4.00;;;2.50;;
24677;SDS011;12800;53.094;8.778;2022-11-04T07:59:32;3.30;;;2.47;;
24677;SDS011;12800;53.094;8.778;2022-11-04T08:01:57;2.50;;;2.30;;
24677;SDS011;12800;53.094;8.778;2022-11-04T08:04:23;3.13;;;2.67;;
24677;SDS011;12800;53.094;8.778;2022-11-04T08:06:49;3.00;;;2.70;;
24677;SDS011;12800;53.094;8.778;2022-11-04T08:09:15;4.07;;;2.50;;
24677;SDS011;12800;53.094;8.778;2022-11-04T08:11:40;3.27;;;2.60;;
24677;SDS011;12800;53.094;8.778;2022-11-04T08:14:06;2.63;;;2.43;;
24677;SDS011;12800;53.094;8.778;2022-11-04T08:16:32;4.10;;;3.10;;
24677;SDS011;12800;53.094;8.778;2022-11-04T08:18:58;3.70;;;2.80;;
24677;SDS011;12800;53.094;8.778;2022-11-04T08:21:26;6.17;;;3.43;;
24677;SDS011;12800;53.094;8.778;2022-11-04T08:23:52;8.20;;;3.60;;
24677;SDS011;12800;53.094;8.778;2022-11-04T08:26:18;7.70;;;3.70;;
24677;SDS011;12800;53.094;8.778;2022-11-04T08:28:44;3.30;;;2.73;;
24677;SDS011;12800;53.094;8.778;2022-11-04T08:31:15;4.27;;;3.57;;
24677;SDS011;12800;53.094;8.778;2022-11-04T08:33:48;3.50;;;2.53;;
24677;SDS011;12800;53.094;8.778;2022-11-04T08:36:47;3.83;;;3.33;;
24677;SDS011;12800;53.094;8.778;2022-11-04T08:39:06;5.27;;;3.10;;
24677;SDS011;12800;53.094;8.778;2022-11-04T08:41:33;2.90;;;2.60;;
24677;SDS011;12800;53.094;8.778;2022-11-04T08:44:01;3.30;;;2.20;;
24677;SDS011;12800;53.094;8.778;2022-11-04T08:46:28;3.10;;;2.53;;
24677;SDS011;12800;53.094;8.778;2022-11-04T08:49:00;2.43;;;2.20;;
24677;SDS011;12800;53.094;8.778;2022-11-04T08:51:26;3.33;;;2.30;;
24677;SDS011;12800;53.094;8.778;2022-11-04T08:53:53;5.23;;;3.30;;
24677;SDS011;12800;53.094;8.778;2022-11-04T08:58:48;4.07;;;2.90;;
24677;SDS011;12800;53.094;8.778;2022-11-04T09:01:14;3.13;;;2.77;;
24677;SDS011;12800;53.094;8.778;2022-11-04T09:03:41;2.40;;;2.20;;
24677;SDS011;12800;53.094;8.778;2022-11-04T09:06:11;2.00;;;1.80;;
24677;SDS011;12800;53.094;8.778;2022-11-04T09:08:39;3.00;;;1.93;;
24677;SDS011;12800;53.094;8.778;2022-11-04T09:11:09;1.97;;;1.87;;
24677;SDS011;12800;53.094;8.778;2022-11-04T09:13:36;2.70;;;1.60;;
24677;SDS011;12800;53.094;8.778;2022-11-04T09:16:03;3.23;;;2.47;;
24677;SDS011;12800;53.094;8.778;2022-11-04T09:18:29;2.40;;;2.20;;
24677;SDS011;12800;53.094;8.778;2022-11-04T09:20:58;2.40;;;2.20;;
24677;SDS011;12800;53.094;8.778;2022-11-04T09:23:24;5.37;;;2.40;;
24677;SDS011;12800;53.094;8.778;2022-11-04T09:25:50;2.47;;;1.67;;
24677;SDS011;12800;53.094;8.778;2022-11-04T09:28:16;2.07;;;1.50;;
24677;SDS011;12800;53.094;8.778;2022-11-04T09:30:42;4.27;;;2.50;;
24677;SDS011;12800;53.094;8.778;2022-11-04T09:33:07;3.50;;;2.37;;
24677;SDS011;12800;53.094;8.778;2022-11-04T09:35:33;2.93;;;2.23;;
24677;SDS011;12800;53.094;8.778;2022-11-04T09:37:59;2.07;;;1.60;;
24677;SDS011;12800;53.094;8.778;2022-11-04T09:40:26;2.57;;;1.80;;
24677;SDS011;12800;53.094;8.778;2022-11-04T09:45:38;1.40;;;1.30;;
24677;SDS011;12800;53.094;8.778;2022-11-04T09:48:06;2.83;;;1.90;;
24677;SDS011;12800;53.094;8.778;2022-11-04T09:53:17;5.53;;;3.40;;
24677;SDS011;12800;53.094;8.778;2022-11-04T09:58:17;3.17;;;2.20;;
24677;SDS011;12800;53.094;8.778;2022-11-04T10:00:43;3.43;;;2.40;;
24677;SDS011;12800;53.094;8.778;2022-11-04T10:06:03;3.07;;;2.07;;
24677;SDS011;12800;53.094;8.778;2022-11-04T10:20:09;2.88;;;2.08;;
24677;SDS011;12800;53.094;8.778;2022-11-04T10:25:20;2.80;;;1.67;;
24677;SDS011;12800;53.094;8.778;2022-11-04T10:27:49;2.38;;;1.80;;
24677;SDS011;12800;53.094;8.778;2022-11-04T10:30:25;2.30;;;1.45;;
24677;SDS011;12800;53.094;8.778;2022-11-04T10:33:07;1.30;;;1.20;;
24677;SDS011;12800;53.094;8.778;2022-11-04T10:35:50;5.03;;;1.33;;
24677;SDS011;12800;53.094;8.778;2022-11-04T10:38:25;2.25;;;1.58;;
24677;SDS011;12800;53.094;8.778;2022-11-04T10:43:44;2.15;;;1.52;;
24677;SDS011;12800;53.094;8.778;2022-11-04T10:46:14;2.40;;;1.23;;
24677;SDS011;12800;53.094;8.778;2022-11-04T10:51:38;2.20;;;1.00;;
24677;SDS011;12800;53.094;8.778;2022-11-04T10:54:04;1.67;;;1.00;;
24677;SDS011;12800;53.094;8.778;2022-11-04T10:56:42;2.08;;;1.23;;
24677;SDS011;12800;53.094;8.778;2022-11-04T11:01:53;2.38;;;1.27;;
24677;SDS011;12800;53.094;8.778;2022-11-04T11:04:24;2.63;;;1.30;;
24677;SDS011;12800;53.094;8.778;2022-11-04T11:06:55;5.63;;;2.22;;
24677;SDS011;12800;53.094;8.778;2022-11-04T11:09:26;4.07;;;1.90;;
24677;SDS011;12800;53.094;8.778;2022-11-04T11:14:38;7.70;;;1.80;;
24677;SDS011;12800;53.094;8.778;2022-11-04T11:19:49;2.22;;;1.73;;
24677;SDS011;12800;53.094;8.778;2022-11-04T11:22:42;3.78;;;1.60;;
24677;SDS011;12800;53.094;8.778;2022-11-04T11:25:11;2.83;;;1.88;;
24677;SDS011;12800;53.094;8.778;2022-11-04T11:27:37;3.33;;;1.60;;
24677;SDS011;12800;53.094;8.778;2022-11-04T11:30:03;2.88;;;1.42;;
24677;SDS011;12800;53.094;8.778;2022-11-04T11:32:32;2.78;;;2.03;;
24677;SDS011;12800;53.094;8.778;2022-11-04T11:35:13;2.92;;;1.83;;
24677;SDS011;12800;53.094;8.778;2022-11-04T11:37:43;5.20;;;2.05;;
24677;SDS011;12800;53.094;8.778;2022-11-04T11:40:26;4.00;;;2.13;;
24677;SDS011;12800;53.094;8.778;2022-11-04T11:42:56;3.97;;;2.10;;
24677;SDS011;12800;53.094;8.778;2022-11-04T11:45:24;2.80;;;2.38;;
24677;SDS011;12800;53.094;8.778;2022-11-04T11:47:51;4.57;;;3.10;;
24677;SDS011;12800;53.094;8.778;2022-11-04T11:50:21;5.68;;;2.47;;
24677;SDS011;12800;53.094;8.778;2022-11-04T11:52:54;5.05;;;3.38;;
24677;SDS011;12800;53.094;8.778;2022-11-04T11:56:25;3.42;;;2.30;;
24677;SDS011;12800;53.094;8.778;2022-11-04T11:58:36;5.00;;;1.90;;
24677;SDS011;12800;53.094;8.778;2022-11-04T12:03:48;6.32;;;2.40;;
24677;SDS011;12800;53.094;8.778;2022-11-04T12:20:07;6.05;;;2.65;;
24677;SDS011;12800;53.094;8.778;2022-11-04T12:22:57;5.05;;;3.08;;
24677;SDS011;12800;53.094;8.778;2022-11-04T12:33:48;7.93;;;3.08;;
24677;SDS011;12800;53.094;8.778;2022-11-04T12:41:48;6.97;;;3.50;;
24677;SDS011;12800;53.094;8.778;2022-11-04T13:01:00;5.60;;;2.53;;
24677;SDS011;12800;53.094;8.778;2022-11-04T13:03:54;4.33;;;2.00;;
24677;SDS011;12800;53.094;8.778;2022-11-04T13:06:46;5.00;;;2.17;;
24677;SDS011;12800;53.094;8.778;2022-11-04T13:12:29;4.47;;;2.27;;
24677;SDS011;12800;53.094;8.778;2022-11-04T13:15:02;2.83;;;1.73;;
24677;SDS011;12800;53.094;8.778;2022-11-04T13:17:37;3.83;;;1.60;;
24677;SDS011;12800;53.094;8.778;2022-11-04T13:20:26;5.03;;;2.57;;
24677;SDS011;12800;53.094;8.778;2022-11-04T13:23:03;3.50;;;2.10;;
24677;SDS011;12800;53.094;8.778;2022-11-04T13:25:38;4.23;;;1.90;;
24677;SDS011;12800;53.094;8.778;2022-11-04T13:28:17;2.00;;;1.43;;
24677;SDS011;12800;53.094;8.778;2022-11-04T13:33:20;7.35;;;1.75;;
24677;SDS011;12800;53.094;8.778;2022-11-04T13:38:43;4.10;;;1.63;;
24677;SDS011;12800;53.094;8.778;2022-11-04T13:41:34;4.37;;;1.90;;
24677;SDS011;12800;53.094;8.778;2022-11-04T13:44:28;1.77;;;1.40;;
24677;SDS011;12800;53.094;8.778;2022-11-04T13:46:59;3.00;;;1.50;;
24677;SDS011;12800;53.094;8.778;2022-11-04T13:49:28;5.35;;;2.03;;
24677;SDS011;12800;53.094;8.778;2022-11-04T13:54:36;4.00;;;1.90;;
24677;SDS011;12800;53.094;8.778;2022-11-04T13:59:32;4.30;;;1.67;;
24677;SDS011;12800;53.094;8.778;2022-11-04T14:04:40;5.15;;;1.60;;
24677;SDS011;12800;53.094;8.778;2022-11-04T14:07:08;1.92;;;1.60;;
24677;SDS011;12800;53.094;8.778;2022-11-04T14:14:36;4.25;;;1.40;;
24677;SDS011;12800;53.094;8.778;2022-11-04T14:17:02;5.82;;;1.90;;
24677;SDS011;12800;53.094;8.778;2022-11-04T14:23:05;3.85;;;1.63;;
24677;SDS011;12800;53.094;8.778;2022-11-04T14:25:19;3.65;;;2.42;;
24677;SDS011;12800;53.094;8.778;2022-11-04T14:27:49;9.20;;;2.00;;
24677;SDS011;12800;53.094;8.778;2022-11-04T14:30:28;5.78;;;1.73;;
24677;SDS011;12800;53.094;8.778;2022-11-04T14:32:59;5.43;;;1.60;;
24677;SDS011;12800;53.094;8.778;2022-11-04T14:35:28;3.88;;;1.15;;
24677;SDS011;12800;53.094;8.778;2022-11-04T14:37:55;4.63;;;1.30;;
24677;SDS011;12800;53.094;8.778;2022-11-04T14:40:25;3.85;;;1.30;;
24677;SDS011;12800;53.094;8.778;2022-11-04T14:42:53;3.90;;;1.60;;
24677;SDS011;12800;53.094;8.778;2022-11-04T14:45:22;6.65;;;1.70;;
24677;SDS011;12800;53.094;8.778;2022-11-04T14:47:56;4.78;;;2.50;;
24677;SDS011;12800;53.094;8.778;2022-11-04T14:50:31;6.22;;;2.13;;
24677;SDS011;12800;53.094;8.778;2022-11-04T14:52:58;4.18;;;1.90;;
24677;SDS011;12800;53.094;8.778;2022-11-04T14:55:30;5.15;;;2.53;;
24677;SDS011;12800;53.094;8.778;2022-11-04T15:03:14;4.35;;;1.73;;
24677;SDS011;12800;53.094;8.778;2022-11-04T15:05:49;3.85;;;1.70;;
24677;SDS011;12800;53.094;8.778;2022-11-04T15:08:41;5.95;;;1.70;;
24677;SDS011;12800;53.094;8.778;2022-11-04T15:11:13;4.47;;;1.70;;
24677;SDS011;12800;53.094;8.778;2022-11-04T15:14:03;2.42;;;1.27;;
24677;SDS011;12800;53.094;8.778;2022-11-04T15:16:38;5.70;;;1.53;;
24677;SDS011;12800;53.094;8.778;2022-11-04T15:19:06;3.38;;;1.40;;
24677;SDS011;12800;53.094;8.778;2022-11-04T15:21:39;4.13;;;1.58;;
24677;SDS011;12800;53.094;8.778;2022-11-04T15:24:13;4.85;;;2.40;;
24677;SDS011;12800;53.094;8.778;2022-11-04T15:26:41;6.27;;;1.30;;
24677;SDS011;12800;53.094;8.778;2022-11-04T15:29:13;1.98;;;0.93;;
24677;SDS011;12800;53.094;8.778;2022-11-04T15:31:52;1.20;;;0.70;;
24677;SDS011;12800;53.094;8.778;2022-11-04T15:34:23;4.75;;;1.02;;
24677;SDS011;12800;53.094;8.778;2022-11-04T15:36:50;3.95;;;1.10;;
24677;SDS011;12800;53.094;8.778;2022-11-04T15:39:29;5.38;;;1.13;;
24677;SDS011;12800;53.094;8.778;2022-11-04T15:42:02;6.23;;;1.37;;
24677;SDS011;12800;53.094;8.778;2022-11-04T15:44:52;1.50;;;1.03;;
24677;SDS011;12800;53.094;8.778;2022-11-04T15:49:50;7.93;;;2.17;;
24677;SDS011;12800;53.094;8.778;2022-11-04T15:52:26;4.40;;;1.43;;
24677;SDS011;12800;53.094;8.778;2022-11-04T15:54:56;5.77;;;1.40;;
24677;SDS011;12800;53.094;8.778;2022-11-04T15:57:23;3.67;;;1.67;;
24677;SDS011;12800;53.094;8.778;2022-11-04T16:05:03;5.97;;;1.30;;
24677;SDS011;12800;53.094;8.778;2022-11-04T16:07:34;15.30;;;7.30;;
24677;SDS011;12800;53.094;8.778;2022-11-04T16:12:50;13.13;;;6.93;;
24677;SDS011;12800;53.094;8.778;2022-11-04T16:17:59;43.97;;;20.67;;
24677;SDS011;12800;53.094;8.778;2022-11-04T16:20:26;35.83;;;16.90;;
24677;SDS011;12800;53.094;8.778;2022-11-04T16:22:56;56.17;;;26.40;;
24677;SDS011;12800;53.094;8.778;2022-11-04T16:25:23;26.63;;;15.27;;
24677;SDS011;12800;53.094;8.778;2022-11-04T16:27:53;9.23;;;4.90;;
24677;SDS011;12800;53.094;8.778;2022-11-04T16:30:20;6.43;;;3.00;;
24677;SDS011;12800;53.094;8.778;2022-11-04T16:32:48;9.17;;;4.53;;
24677;SDS011;12800;53.094;8.778;2022-11-04T16:35:19;17.87;;;9.07;;
24677;SDS011;12800;53.094;8.778;2022-11-04T16:37:49;5.00;;;2.13;;
24677;SDS011;12800;53.094;8.778;2022-11-04T16:40:15;6.17;;;1.77;;
24677;SDS011;12800;53.094;8.778;2022-11-04T16:42:42;7.50;;;2.17;;
24677;SDS011;12800;53.094;8.778;2022-11-04T16:45:20;5.80;;;2.80;;
24677;SDS011;12800;53.094;8.778;2022-11-04T16:47:50;3.97;;;2.10;;
24677;SDS011;12800;53.094;8.778;2022-11-04T16:50:16;4.57;;;2.73;;
24677;SDS011;12800;53.094;8.778;2022-11-04T16:52:42;8.07;;;4.63;;
24677;SDS011;12800;53.094;8.778;2022-11-04T16:55:08;4.77;;;2.33;;
24677;SDS011;12800;53.094;8.778;2022-11-04T16:57:35;6.30;;;2.40;;
24677;SDS011;12800;53.094;8.778;2022-11-04T17:00:01;9.63;;;4.83;;
24677;SDS011;12800;53.094;8.778;2022-11-04T17:02:28;4.63;;;1.60;;
24677;SDS011;12800;53.094;8.778;2022-11-04T17:04:57;3.47;;;1.43;;
24677;SDS011;12800;53.094;8.778;2022-11-04T17:07:23;4.80;;;2.30;;
24677;SDS011;12800;53.094;8.778;2022-11-04T17:09:48;3.77;;;1.50;;
24677;SDS011;12800;53.094;8.778;2022-11-04T17:12:14;6.57;;;1.57;;
24677;SDS011;12800;53.094;8.778;2022-11-04T17:14:40;8.47;;;4.03;;
24677;SDS011;12800;53.094;8.778;2022-11-04T17:17:05;7.57;;;3.23;;
24677;SDS011;12800;53.094;8.778;2022-11-04T17:19:32;10.50;;;5.60;;
24677;SDS011;12800;53.094;8.778;2022-11-04T17:21:58;14.83;;;7.43;;
24677;SDS011;12800;53.094;8.778;2022-11-04T17:24:26;7.37;;;2.47;;
24677;SDS011;12800;53.094;8.778;2022-11-04T17:26:52;7.27;;;3.67;;
24677;SDS011;12800;53.094;8.778;2022-11-04T17:29:18;5.87;;;3.60;;
24677;SDS011;12800;53.094;8.778;2022-11-04T17:31:44;7.13;;;4.03;;
24677;SDS011;12800;53.094;8.778;2022-11-04T17:34:09;7.37;;;4.30;;
24677;SDS011;12800;53.094;8.778;2022-11-04T17:36:35;6.70;;;3.57;;
24677;SDS011;12800;53.094;8.778;2022-11-04T17:39:01;14.30;;;4.50;;
24677;SDS011;12800;53.094;8.778;2022-11-04T17:41:27;8.87;;;3.87;;
24677;SDS011;12800;53.094;8.778;2022-11-04T17:44:10;9.97;;;6.10;;
24677;SDS011;12800;53.094;8.778;2022-11-04T17:46:37;6.43;;;4.73;;
24677;SDS011;12800;53.094;8.778;2022-11-04T17:49:04;4.37;;;1.97;;
24677;SDS011;12800;53.094;8.778;2022-11-04T17:51:31;5.63;;;1.90;;
24677;SDS011;12800;53.094;8.778;2022-11-04T17:53:57;7.40;;;1.77;;